出雲空港の過去48時間の天気

出雲空港 (Izumo)

現在時刻: 11/13 17:23 JST (11/13 08:23 UTC) 以下の時間は現地時間です。

過去48時間のMETAR気象情報
時間 風向 風速(m/s) 視程 気温(℃) 湿度(%) 気圧(hPa) 天気現象
13 17:00 南南西 5 10km以上 19 64 1013
13 16:00 西南西 6 10km以上 19 64 1013
13 15:00 西 6 10km以上 20 56 1013
13 14:00 南南西 5 10km以上 21 46 1014
13 13:00 南西 4 10km以上 21 43 1015
13 12:00 2 10km以上 21 49 1016
13 11:00 2 10km以上 16 72 1017
13 10:00 北東 2 10km以上 15 77 1018
13 09:00 東北東 2 10km以上 13 77 1019
13 08:00 南南東 5 10km以上 10 87 1019
13 07:00 南南東 3 10km以上 9 87 1020 散在した霧
13 06:30 南東 5 10km以上 7 93 1020 散在した霧
13 06:10 南南東 5 10km以上 7 93 1020 部分霧
12 20:00 南南東 3 10km以上 13 77 1020
12 19:00 南南西 2 10km以上 13 82 1020
12 18:00 3 10km以上 15 72 1020
12 17:00 4 10km以上 16 68 1018
12 16:00 東北東 6 10km以上 17 68 1018
12 15:00 東北東 3 10km以上 17 63 1018
12 14:00 東北東 4 10km以上 18 60 1018
12 13:00 東北東 3 10km以上 19 56 1018
12 12:00 4 10km以上 17 68 1019
12 11:00 不定 1 10km以上 19 52 1018
12 10:00 南南東 3 10km以上 17 63 1019
12 09:00 4 10km以上 14 77 1019
12 08:00 4 10km以上 12 88 1018
12 07:00 5 10km以上 11 87 1017 周辺で霧
12 06:30 南西 2 10km以上 10 87 1017
12 06:10 3 10km以上 10 87 1017
11 20:00 西 7 10km以上 16 59 1011
11 19:00 西 5 10km以上 17 55 1011
11 18:00 西 8 10km以上 17 52 1010
RJOC 130800Z 21009KT 9999 FEW025 SCT035 BKN120 19/12 Q1013
RJOC 130700Z 25012KT 9999 FEW025 BKN045 BKN130 19/12 Q1013
RJOC 130600Z 26011KT 9999 FEW030 BKN140 20/11 Q1013
RJOC 130500Z 20010KT 9999 FEW030 SCT130 BKN/// 21/09 Q1014
RJOC 130400Z 22008KT 9999 FEW030 SCT130 BKN/// 21/08 Q1015
RJOC 130300Z 01003KT 310V050 9999 FEW030 BKN130 21/10 Q1016
RJOC 130200Z 36003KT 9999 FEW030 16/11 Q1017
RJOC 130100Z 04004KT 360V100 9999 FEW030 15/11 Q1018
RJOC 130000Z 06004KT 9999 FEW003 13/09 Q1019
RJOC 122300Z 16009KT 9999 FEW003 10/08 Q1019
RJOC 122200Z 16005KT 9999 BCFG FEW000 09/07 Q1020
RJOC 122130Z 14009KT 9999 BCFG FEW000 07/06 Q1020
RJOC 122110Z 15009KT 9999 PRFG FEW000 07/06 Q1020 RMK 1ST000 A3014 3000W FG W-NW
RJOC 121100Z 16005KT CAVOK 13/09 Q1020
RJOC 121000Z 20003KT 090V260 CAVOK 13/10 Q1020
RJOC 120900Z 08006KT 9999 FEW040 BKN/// 15/10 Q1020
RJOC 120800Z 09008KT 9999 FEW030 BKN/// 16/10 Q1018
RJOC 120700Z 07011KT 9999 FEW030 SCT/// 17/11 Q1018
RJOC 120600Z 07006KT 9999 FEW025 SCT070 17/10 Q1018
RJOC 120500Z 06008KT 9999 FEW030 SCT040 18/10 Q1018
RJOC 120400Z 06006KT 030V100 9999 FEW030 SCT040 19/10 Q1018
RJOC 120300Z 08007KT 9999 FEW030 SCT040 BKN060 17/11 Q1019
RJOC 120200Z VRB01KT 9999 FEW030 SCT040 19/09 Q1018
RJOC 120100Z 16005KT 9999 FEW030 17/10 Q1019
RJOC 120000Z 17007KT 9999 FEW030 14/10 Q1019
RJOC 112300Z 19007KT 150V210 9999 FEW030 12/10 Q1018
RJOC 112200Z 17009KT 9999 VCFG FEW030 11/09 Q1017
RJOC 112130Z 22004KT 9999 FEW030 10/08 Q1017
RJOC 112110Z 19006KT 9999 FEW030 10/08 Q1017 RMK 1CU030 A3005
RJOC 111100Z 28013KT 9999 FEW030 SCT040 BKN070 16/08 Q1011
RJOC 111000Z 27010KT 9999 FEW030 SCT040 BKN060 17/08 Q1011
RJOC 110900Z 27016KT 9999 FEW030 SCT040 BKN060 17/07 Q1010